• Join FlightAware (Why Join?)
  • Login
  • US Flag 
04:04AM EDT


 

Airport Tracker/Info


-or-


 

Live Flight TrackerFlight Track Log ✈ UAL4476 ✈ 08-Apr-2013 ✈ KDFW - KCLE

Flight Track Log - Related Links

Times and Time Zones

All times are in EDT time to prevent confusion due to time zone crossing. See the UAL4476 flight status page for this flight to view local times or setup timezone preferences in your user account.

Time Position Orientation Groundspeed Altitude Reporting Facility
EDT Latitude Longitude Course Direction KTS MPH feet Rate Location/Type
07:18AM 32.8500 -97.0167 57° Northeast 174 200 2,800  Level Dallas / Fort Worth TRACON
07:19AM 32.7833 -96.9833 157° South 245 282 4,900 2,040 Climbing Dallas / Fort Worth TRACON
07:20AM 32.7667 -96.9000 103° East 288 331 7,200 2,160 Climbing Dallas / Fort Worth TRACON
07:21AM 32.7833 -96.8000 79° East 304 350 9,300 1,440 Climbing Dallas / Fort Worth TRACON
07:23AM 33.0161 -96.4108 57° Northeast  Level FlightAware Approximate
07:23AM 32.9267 -96.5819 52° Northeast 353 406 12,400  Level Fort Worth Center
07:24AM 32.9947 -96.4722 53° Northeast 394 453 13,800 1,380 Climbing Fort Worth Center
07:25AM 33.0567 -96.3750 53° Northeast 400 460 15,200 1,500 Climbing Fort Worth Center
07:26AM 33.1097 -96.2428 64° Northeast 400 460 16,800 1,200 Climbing Fort Worth Center
07:27AM 33.1442 -96.1283 70° East 400 460 17,700 1,080 Climbing Fort Worth Center
07:28AM 33.1883 -95.9786 71° East 414 476 19,000 1,080 Climbing Fort Worth Center
07:29AM 33.2225 -95.8539 72° East 432 497 19,900 960 Climbing Fort Worth Center
07:30AM 33.2686 -95.7042 70° East 437 503 21,000 960 Climbing Fort Worth Center
07:31AM 33.3022 -95.5767 72° East 444 511 21,900 900 Climbing Fort Worth Center
07:32AM 33.3439 -95.4292 71° East 449 517 22,900 960 Climbing Fort Worth Center
07:33AM 33.3894 -95.2864 69° East 454 522 23,900 960 Climbing Fort Worth Center
07:34AM 33.4286 -95.1386 72° East 454 522 24,900 960 Climbing Fort Worth Center
07:35AM 33.4719 -94.9931 70° East 454 522 25,900 960 Climbing Fort Worth Center
07:36AM 33.5167 -94.8372 71° East 454 522 26,900 4,500 Climbing Fort Worth Center
07:37AM 33.5575 -94.6914 71° East 454 522 35,000 960 Climbing Fort Worth Center
07:38AM 33.5981 -94.5481 71° East 445 512 28,900 -2,580 Descending Fort Worth Center
07:39AM 33.6406 -94.4044 70° East 451 519 29,900 960 Climbing Fort Worth Center
07:40AM 33.6789 -94.2633 72° East 451 519 30,900 900 Climbing Fort Worth Center
07:42AM 33.7758 -94.0531 61° Northeast 445 512 32,400 960 Climbing Memphis Center
07:43AM 33.8358 -93.9233 61° Northeast 445 512 33,500 900 Climbing Memphis Center
07:44AM 33.9022 -93.7958 58° Northeast 445 512 34,300 600 Climbing Memphis Center
07:45AM 33.9642 -93.6656 60° Northeast 445 512 34,800 300 Climbing Memphis Center
07:46AM 34.0322 -93.5303 59° Northeast 450 518 35,000 60 Climbing Memphis Center
07:47AM 34.0983 -93.3947 59° Northeast 461 531 35,000  Level Memphis Center
07:48AM 34.1664 -93.2492 60° Northeast 469 540 35,000  Level Memphis Center
07:49AM 34.2364 -93.1058 59° Northeast 482 555 35,000  Level Memphis Center
07:50AM 34.3106 -92.9597 58° Northeast 489 563 35,000  Level Memphis Center
07:51AM 34.3761 -92.8106 62° Northeast 500 575 35,000  Level Memphis Center
07:52AM 34.4392 -92.6792 60° Northeast 500 575 35,000  Level Memphis Center
07:53AM 34.5172 -92.5197 59° Northeast 500 575 35,000  Level Memphis Center
07:54AM 34.5842 -92.3753 61° Northeast 495 570 35,000  Level Memphis Center
07:55AM 34.6553 -92.2281 60° Northeast 495 570 35,000  Level Memphis Center
07:56AM 34.7408 -92.1008 51° Northeast 489 563 35,000  Level Memphis Center
07:57AM 34.8364 -91.9764 47° Northeast 489 563 35,000  Level Memphis Center
07:58AM 34.9317 -91.8542 46° Northeast 489 563 35,000  Level Memphis Center
07:59AM 35.0247 -91.7367 46° Northeast 489 563 35,000  Level Memphis Center
08:00AM 35.1200 -91.6136 47° Northeast 489 563 35,000  Level Memphis Center
08:01AM 35.2172 -91.4881 47° Northeast 489 563 35,000  Level Memphis Center
08:02AM 35.3078 -91.3672 47° Northeast 489 563 35,000  Level Memphis Center
08:03AM 35.4069 -91.2436 45° Northeast 489 563 35,000  Level Memphis Center
08:04AM 35.4994 -91.1247 46° Northeast 489 563 35,000  Level Memphis Center
08:05AM 35.5939 -90.9978 48° Northeast 489 563 35,000  Level Memphis Center
08:06AM 35.6883 -90.8758 46° Northeast 489 563 35,000  Level Memphis Center
08:07AM 35.7764 -90.7536 48° Northeast 483 556 35,000  Level Memphis Center
08:08AM 35.8706 -90.6311 46° Northeast 483 556 35,000  Level Memphis Center
08:09AM 35.9647 -90.5058 47° Northeast 490 564 35,000  Level Memphis Center
08:10AM 36.0544 -90.3828 48° Northeast 490 564 35,000  Level Memphis Center
08:11AM 36.1439 -90.2619 47° Northeast 485 558 35,000  Level Memphis Center
08:12AM 36.2356 -90.1383 47° Northeast 485 558 35,000  Level Memphis Center
08:13AM 36.3292 -90.0117 47° Northeast 485 558 35,000  Level Memphis Center
08:14AM 36.4183 -89.8928 47° Northeast 485 558 35,000  Level Memphis Center
08:15AM 36.5117 -89.7656 48° Northeast 485 558 35,000  Level Memphis Center
08:16AM 36.6025 -89.6411 48° Northeast 485 558 35,000  Level Memphis Center
08:17AM 36.6853 -89.5289 47° Northeast 485 558 35,000  Level Memphis Center
08:18AM 36.7781 -89.4011 48° Northeast 485 558 35,000  Level Memphis Center
08:19AM 36.8708 -89.2728 48° Northeast 490 564 35,000  Level Memphis Center
08:20AM 36.9614 -89.1469 48° Northeast 490 564 35,000  Level Memphis Center
08:21AM 37.0539 -89.0183 48° Northeast 490 564 35,000  Level Memphis Center
08:22AM 37.1461 -88.8892 48° Northeast 490 564 35,000  Level Memphis Center
08:23AM 37.2383 -88.7625 48° Northeast 490 564 35,000  Level Memphis Center
08:24AM 37.3219 -88.6225 53° Northeast 490 564 35,000  Level Memphis Center
08:25AM 37.3906 -88.4722 60° Northeast 496 571 35,000  Level Memphis Center
08:26AM 37.4856 -88.2544 61° Northeast 510 587 35,000  Level Indianapolis Center
08:27AM 37.5558 -88.0975 61° Northeast 510 587 35,000  Level Indianapolis Center
08:28AM 37.6283 -87.9411 60° Northeast 510 587 35,000  Level Indianapolis Center
08:29AM 37.6983 -87.7819 61° Northeast 511 588 35,000  Level Indianapolis Center
08:30AM 37.7686 -87.6253 60° Northeast 509 586 35,000  Level Indianapolis Center
08:31AM 37.8436 -87.4567 61° Northeast 510 587 35,000  Level Indianapolis Center
08:32AM 37.9128 -87.3019 60° Northeast 508 585 35,000  Level Indianapolis Center
08:33AM 37.9806 -87.1475 61° Northeast 505 581 35,000  Level Indianapolis Center
08:35AM 38.0481 -86.9939 61° Northeast 502 578 35,000  Level Indianapolis Center
08:36AM 38.1153 -86.8408 61° Northeast 503 579 35,000  Level Indianapolis Center
08:37AM 38.1819 -86.6872 61° Northeast 501 577 35,000  Level Indianapolis Center
08:38AM 38.2622 -86.5008 61° Northeast 503 579 35,000  Level Indianapolis Center
08:39AM 38.3311 -86.3439 61° Northeast 506 582 35,000  Level Indianapolis Center
08:40AM 38.3975 -86.1869 62° Northeast 504 580 35,000  Level Indianapolis Center
08:41AM 38.4647 -86.0286 61° Northeast 507 583 35,000  Level Indianapolis Center
08:42AM 38.5322 -85.8722 61° Northeast 502 578 35,000  Level Indianapolis Center
08:43AM 38.5994 -85.7139 61° Northeast 504 580 35,000  Level Indianapolis Center
08:44AM 38.6739 -85.5344 62° Northeast 503 579 35,000  Level Indianapolis Center
08:45AM 38.7447 -85.3794 60° Northeast 502 578 35,000  Level Indianapolis Center
08:46AM 38.8369 -85.2489 48° Northeast 490 564 35,000  Level Indianapolis Center
08:47AM 38.9283 -85.1172 48° Northeast 491 565 35,000  Level Indianapolis Center
08:48AM 39.0175 -84.9856 49° Northeast 486 559 35,000  Level Indianapolis Center
08:49AM 39.1072 -84.8558 48° Northeast 476 548 35,000  Level Indianapolis Center
08:50AM 39.1944 -84.7286 48° Northeast 470 541 35,000  Level Indianapolis Center
08:51AM 39.2822 -84.5997 49° Northeast 473 544 35,000  Level Indianapolis Center
08:52AM 39.3708 -84.4697 49° Northeast 477 549 35,000 -840 Level Indianapolis Center
08:53AM 39.4578 -84.3389 49° Northeast 476 548 33,300 -1,860 Descending Indianapolis Center
08:54AM 39.5461 -84.2092 49° Northeast 476 548 31,300 -1,920 Descending Indianapolis Center
08:55AM 39.6353 -84.0750 49° Northeast 484 557 29,400 -1,140 Descending Indianapolis Center
08:56AM 39.7503 -83.9311 44° Northeast 486 559 29,000 -300 Descending Indianapolis Center
08:57AM 39.8550 -83.8189 39° Northeast 481 554 28,900 -540 Descending Indianapolis Center
08:58AM 39.9614 -83.7044 39° Northeast 484 557 28,000 -1,020 Descending Indianapolis Center
08:59AM 40.0711 -83.5867 39° Northeast 498 573 26,900 -1,080 Descending Indianapolis Center
09:00AM 40.1786 -83.4694 40° Northeast 495 570 25,900 -1,380 Descending Indianapolis Center
09:01AM 40.2800 -83.3503 42° Northeast 484 557 24,100 -1,860 Descending Indianapolis Center
09:02AM 40.3764 -83.2256 45° Northeast 480 552 22,100 -1,980 Descending Indianapolis Center
09:03AM 40.4700 -83.1056 44° Northeast 469 540 20,100 -1,560 Descending Indianapolis Center
09:04AM 40.5628 -82.9875 44° Northeast 454 522 18,900 -1,680 Descending Indianapolis Center
09:05AM 40.6497 -82.8725 45° Northeast 440 506 16,700 -2,340 Descending Indianapolis Center
09:06AM 40.6764 -82.8392 43° Northeast 437 503 15,800 -2,280 Descending Cleveland Center
09:06AM 40.7319 -82.7697 43° Northeast 416 479 14,300 -2,220 Descending Cleveland Center
09:07AM 40.7661 -82.7242 45° Northeast 418 481 13,600 -2,520 Descending Cleveland Center
09:07AM 40.8089 -82.6708 43° Northeast 414 476 12,300 -2,220 Descending Cleveland Center
09:08AM 40.8453 -82.6197 47° Northeast 406 467 11,400 -1,800 Descending Cleveland Center
09:08AM 40.8900 -82.5661 42° Northeast 363 418 10,300 -1,440 Descending Cleveland Center
09:09AM 40.9178 -82.5258 48° Northeast 381 438 10,000 -360 Descending Cleveland Center
09:09AM 40.9603 -82.4719 44° Northeast 381 438 10,000  Level Cleveland Center
09:10AM 40.9925 -82.4236 49° Northeast 376 433 10,000  Level Cleveland Center
09:10AM 41.0331 -82.3694 45° Northeast 387 445 10,000  Level Cleveland Center
09:11AM 41.0711 -82.3211 44° Northeast 376 433 10,000  Level Cleveland Center
09:11AM 41.1264 -82.2508 44° Northeast 396 456 10,000  Level Cleveland Center
09:12AM 41.1456 -82.2211 49° Northeast 381 438 10,000  Level Cleveland Center
09:12AM 41.1986 -82.1533 44° Northeast 380 437 10,000  Level Cleveland Center
09:13AM 41.2200 -82.1233 47° Northeast 375 432 10,000 -120 Level Cleveland Center
09:13AM 41.2561 -82.0800 42° Northeast 323 372 9,900 -420 Descending Cleveland Center
09:14AM 41.2772 -82.0475 49° Northeast 347 399 9,600 -1,380 Descending Cleveland Center
09:14AM 41.3114 -81.9764 57° Northeast 295 339 8,400 -1,440 Descending Cleveland Center
09:15AM 41.3181 -81.9544 68° East 303 349 8,200 -1,020 Descending Cleveland Center
09:15AM 41.3419 -81.8719 69° East 289 333 7,400 -1,020 Descending Cleveland Center
09:16AM 41.3464 -81.8528 73° East 283 326 7,200 -1,260 Descending Cleveland Center
09:17AM 41.3722 -81.7564 70° East 281 323 5,900 -1,740 Descending Cleveland Center
09:17AM 41.4189 -81.6853 49° Northeast 274 315 4,000 -1,440 Descending Cleveland Center
09:19AM 41.4878 -81.6919 356° North 251 289 3,000 -720 Descending Cleveland Center
09:20AM 41.4725 -81.7608 254° West 225 259 2,600 -720 Descending Cleveland Center
09:21AM 41.4364 -81.8044 222° Southwest 131 151 1,600 -900 Descending Cleveland Center